Terminal Aerodrome Forecast
Issued by NWS

Home | Current Version | Previous Version | Text Only | Print | Product List | Glossary On
Versions: 1 2 3 4 5 6 7 8 9 10 11 12
000
FTPQ31 PGUM 161727
TAFGUM
TAF

TAF
PGSN 161727Z 1618/1718 VRB06KT P6SM VCSH SCT020 SCT040 BKN110
      TEMPO 1619/1621 4SM SHRA BKN015
     FM162100 VRB06KT P6SM VCTS SCT017CB BKN070 OVC110=

USA.gov is the U.S. government's official web portal to all federal, state and local government web resources and services.